Detailed Flight Report of Nuri Burak ERKAL ;
Number CXD079 
Departure Aerodrome UBBB 
Arrival Aerodrome UAAA

Map generated by the Great Circle Mapper - copyright © Karl L. Swartz.

Pilot In Command CXD079 : Nuri Burak Erkal
Aircraft B773 / TC-NZL
Date Of Flight 2020-07-01
Departure Time 02:19 UTC
Arrival Time 05:09 UTC
Block Time 02:50
Distance 1,280 Nm.
Used Fuel 32,767 Lbs.
   
Detailed Flight Log [2020/07/01 02:29:00]
Flight IATA:C001
Pilot Number:079
Company ICAO:CXD
Aircraft Type:B773
Aircraft Registration:TC-NZL
Departing Airport: UBBB
Destination Airport: UAAA
Alternate Airport:UCFL
Online: VATSIM
Route:NAMAS N35 RODAR A909 TUNEK B143 KRS A480 OTBOR N147 URG B370 TMD B163 SMK B114 KOLAM A127 TAR G270 TIPSA
Flight Level:FL390
No pause
02:29 Zero fuel Weight: 467908 Lbs, Fuel Weight: 51649 Lbs
02:29 VATSIM:UBBB 301400Z 17010KT CAVOK 26/16 Q1006 R88/CLRD// NOSIG
02:29 VATSIM:UAAA 301400Z 12002MPS 060V150 9999 SCT100 BKN200 26/11 Q1006 R05R/CLRD65 NOSIG
02:33 Parking Brakes off
02:49 VR= 166 Knots
02:49 V2= 175 Knots
02:49 Take-off
02:49 Take off Weight: 517776 Lbs
02:49 Wind: 170º @ 008 Knots Heading: 166º
02:49 POS N40º 28´ 22´´ E050º 02´ 09´´
02:49 N11 92 N12 92
02:49 Flaps:5º at 177 Knots
02:49 Gear Up: 182 Knots
02:50 Flaps:1º at 194 Knots
02:50 Fl
aps:Up at 187 Knots
03:04 Wind:271º@060 Knots Heading: 105º Ground Speed: 551 Knots Altitude 30698 ft
03:10 TOC
03:10 Fuel Weight: 40131 Lb
03:19 Wind:277º@083 Knots Heading: 081º Ground Speed: 563 Knots Altitude 38792 ft
03:34 Wind:279º@078 Knots Heading: 064º Ground Speed: 548 Knots Altitude 38759 ft
03:49 Wind:282º@071 Knots Heading: 068º Ground Speed: 543 Knots Altitude 38727 ft
04:04 Wind:280º@063 Knots Heading: 085º Ground Speed: 543 Knots Altitude 38713 ft
04:19 Wind:265º@056 Knots Heading: 079º Ground Speed: 543 Knots Altitude 38730 ft
04:34 Wind:253º@062 Knots Heading: 071º Ground Speed: 549 Knots Altitude 38727 ft
04:49 Wind:253º@065 Knots Heading: 075º Ground Speed: 549 Knots Altitude 38766 ft
04:52 TOD
04:52 Fuel Weight: 16367 Lb
05:04 Wind:251º@029 Knots Heading: 077º Ground Speed: 432 Knots Altitude 23398 ft
05:19 Wind:343º@002 Knots Heading: 213º G
round Speed: 240 Knots Altitude 4143 ft
05:19 Flaps:1º at 207 Knots
05:19 Flaps:5º at 196 Knots
05:19 Flaps:15º at 179 Knots
05:20 Flaps:30º at 177 Knots
05:20 Gear Down: 172 Knots
05:20 Flaps:35º at 167 Knots
05:20 Flaps:Full at 157 Knots
05:22 TouchDown:Rate -180 ft/min Speed: 133 Knots
05:22 VATSIM:UAAA 301700Z 15003MPS 9999 FEW100 SCT200 20/10 Q1006 R23L/CLRD65 NOSIG
05:22 Land
05:22 Wind:337º@002 Knots
05:22 Heading: 235º
05:22 Flight Duration: 02:33
05:22 Landing Weight: 480595 Lbs
05:22 POS N43º 21´ 18´´ E077º 02´ 49´´
05:23 Parking brakes on
05:23 Block to Block Duration: 02:50
05:23 Final Fuel: 12621 Lbls
05:23 Spent Fuel: 39027 Lbls
05:23 Flight Length: 1280 NM
05:23 TOD Land Length: 189 NM

Text Link of Flight Log http://www.candanair.net/acars/logs/CXD07920200701022900.txt
   

[ Back ]